Time;durP1;ratioP1;P1;durP2;ratioP2;P2;SDS_P1;SDS_P2;PMS_P1;PMS_P2;Temp;Humidity;BMP_temperature;BMP_pressure;BME280_temperature;BME280_humidity;BME280_pressure;Samples;Min_cycle;Max_cycle;Signal;HPM_P1;HPM_P2
2022/05/13 00:02:15;;;;;;;5.75;2.83;;;;;;;14.75;62.69;99745.44;5111776;28;20028;-88
2022/05/13 00:04:40;;;;;;;4.25;2.92;;;;;;;14.69;62.29;99755.41;5110611;28;20042;-88
2022/05/13 00:07:07;;;;;;;4.40;2.85;;;;;;;14.63;61.77;99745.31;5110772;28;20032;-88
2022/05/13 00:12:16;;;;;;;3.88;2.67;;;;;;;14.51;62.35;99746.06;5111831;28;20035;-88
2022/05/13 00:14:44;;;;;;;4.72;2.80;;;;;;;14.44;62.92;99753.41;5110554;28;20384;-88
2022/05/13 00:17:10;;;;;;;3.42;2.58;;;;;;;14.37;63.76;99740.78;5089632;28;20445;-88
2022/05/13 00:19:36;;;;;;;7.20;3.45;;;;;;;14.42;64.29;99757.06;5092379;28;20035;-87
2022/05/13 00:22:01;;;;;;;2.90;2.60;;;;;;;14.44;64.18;99748.16;5075688;28;20048;-88
2022/05/13 00:24:27;;;;;;;5.85;3.00;;;;;;;14.39;64.79;99752.84;5075310;28;20051;-89
2022/05/13 00:26:53;;;;;;;6.90;3.15;;;;;;;14.38;65.42;99755.56;5075552;28;20519;-88
2022/05/13 00:29:18;;;;;;;4.40;3.03;;;;;;;14.35;66.03;99753.97;5075372;28;20035;-88
2022/05/13 00:31:44;;;;;;;5.50;2.70;;;;;;;14.33;66.09;99750.59;5075321;28;20119;-88
2022/05/13 00:34:10;;;;;;;3.53;2.70;;;;;;;14.30;66.61;99747.31;5075425;28;20024;-89
2022/05/13 00:36:38;;;;;;;4.15;2.83;;;;;;;14.16;67.14;99722.81;5071588;28;20521;-88
2022/05/13 00:39:04;;;;;;;3.05;2.60;;;;;;;14.11;67.47;99724.84;5055312;28;20028;-88
2022/05/13 00:41:30;;;;;;;5.03;3.10;;;;;;;14.17;67.55;99744.59;5054888;28;20139;-88
2022/05/13 00:43:56;;;;;;;5.32;2.58;;;;;;;14.07;68.10;99738.22;5071802;28;20136;-88
2022/05/13 00:46:23;;;;;;;3.83;2.80;;;;;;;14.07;68.78;99738.22;5071623;28;20060;-88
2022/05/13 00:48:50;;;;;;;3.90;2.47;;;;;;;14.00;69.26;99735.13;5086237;28;20127;-88
2022/05/13 00:51:22;;;;;;;5.93;2.60;;;;;;;13.98;69.44;99744.84;5095263;28;20032;-88
2022/05/13 00:53:48;;;;;;;6.65;2.63;;;;;;;13.89;69.57;99732.28;5095228;28;20123;-87
2022/05/13 00:56:14;;;;;;;3.25;2.35;;;;;;;13.84;69.28;99729.09;5095184;28;20720;-88
2022/05/13 00:58:43;;;;;;;4.78;2.80;;;;;;;13.75;70.28;99719.19;5094956;28;20461;-88
2022/05/13 01:01:10;;;;;;;3.17;2.83;;;;;;;13.80;70.84;99731.06;5095053;28;20516;-88
2022/05/13 01:03:36;;;;;;;6.00;2.80;;;;;;;13.76;71.00;99728.72;5094939;28;20034;-89
2022/05/13 01:06:10;;;;;;;4.57;2.63;;;;;;;13.66;70.82;99720.56;5095050;28;20031;-89
2022/05/13 01:08:36;;;;;;;4.90;2.85;;;;;;;13.60;70.76;99716.50;5069422;28;20051;-88
2022/05/13 01:11:06;;;;;;;4.70;3.10;;;;;;;13.67;69.65;99725.69;5054669;28;20059;-88
2022/05/13 01:13:33;;;;;;;3.97;2.95;;;;;;;13.60;70.00;99716.50;5054402;28;20036;-88
2022/05/13 01:15:59;;;;;;;4.25;2.80;;;;;;;13.60;69.63;99723.53;5071657;28;20638;-88
2022/05/13 01:18:33;;;;;;;4.15;2.60;;;;;;;13.52;70.12;99725.72;5054416;28;20076;-88
2022/05/13 01:21:01;;;;;;;4.95;3.00;;;;;;;13.55;69.99;99723.78;5054733;28;20051;-88
2022/05/13 01:23:31;;;;;;;3.33;3.03;;;;;;;13.47;69.86;99711.13;5054301;28;20047;-88
2022/05/13 01:26:03;;;;;;;7.07;3.28;;;;;;;13.54;69.07;99724.72;5054304;28;20412;-88
2022/05/13 01:28:56;;;;;;;4.45;2.80;;;;;;;13.53;69.08;99712.59;5053294;28;20536;-88
2022/05/13 01:31:33;;;;;;;5.22;3.20;;;;;;;13.47;69.22;99715.53;4991564;28;20467;-88
2022/05/13 01:34:00;;;;;;;3.85;3.00;;;;;;;13.47;70.04;99719.00;4991605;28;20045;-88
2022/05/13 01:36:27;;;;;;;3.63;2.60;;;;;;;13.46;70.92;99721.72;4991242;28;20116;-88
2022/05/13 01:38:53;;;;;;;4.38;2.58;;;;;;;13.30;70.67;99700.81;4987926;28;20040;-88
2022/05/13 01:41:19;;;;;;;6.15;2.92;;;;;;;13.37;71.49;99717.00;5034110;28;20029;-88
2022/05/13 01:43:47;;;;;;;5.78;3.10;;;;;;;13.28;71.41;99709.69;5034172;28;20036;-88
2022/05/13 01:46:13;;;;;;;8.07;3.05;;;;;;;13.19;72.10;99706.63;5010871;28;20042;-88
2022/05/13 01:48:39;;;;;;;4.60;2.92;;;;;;;13.13;72.55;99704.34;5010540;28;20462;-88
2022/05/13 01:51:05;;;;;;;5.07;3.05;;;;;;;13.12;72.52;99709.66;4994808;28;20036;-87
2022/05/13 01:53:31;;;;;;;7.55;2.83;;;;;;;13.08;73.04;99708.16;4994377;28;20026;-88
2022/05/13 01:55:57;;;;;;;7.63;3.13;;;;;;;12.94;72.94;99690.63;4994316;28;20525;-88
2022/05/13 01:58:24;;;;;;;5.40;3.13;;;;;;;12.93;73.45;99688.91;4994262;28;20169;-88
2022/05/13 02:00:51;;;;;;;4.97;3.20;;;;;;;12.87;73.62;99690.13;4994302;28;20089;-88
2022/05/13 02:06:03;;;;;;;5.45;3.10;;;;;;;12.77;73.94;99682.84;5011040;28;20144;-88
2022/05/13 02:08:29;;;;;;;5.25;3.30;;;;;;;12.77;73.85;99695.91;5039030;28;20528;-88
2022/05/13 02:10:55;;;;;;;4.93;3.13;;;;;;;12.76;74.05;99702.91;5070194;28;20025;-87
2022/05/13 02:13:21;;;;;;;4.95;3.60;;;;;;;12.72;74.43;99704.00;5053587;28;20028;-88
2022/05/13 02:15:46;;;;;;;7.03;3.10;;;;;;;12.57;74.46;99683.97;5053210;28;20074;-87
2022/05/13 02:18:12;;;;;;;6.82;3.17;;;;;;;12.59;74.72;99697.78;5106326;28;20040;-88
2022/05/13 02:20:38;;;;;;;4.30;3.00;;;;;;;12.47;75.28;99697.53;5113002;28;20460;-88
2022/05/13 02:23:04;;;;;;;4.50;3.15;;;;;;;12.40;75.36;99687.47;5111907;28;20062;-88
2022/05/13 02:25:30;;;;;;;5.53;3.40;;;;;;;12.24;75.94;99670.00;5111627;28;20028;-88
2022/05/13 02:28:00;;;;;;;5.30;3.67;;;;;;;12.24;75.86;99677.00;5111841;28;20027;-88
2022/05/13 02:30:27;;;;;;;7.70;3.45;;;;;;;12.19;76.52;99687.69;5112858;28;20028;-87
2022/05/13 02:32:52;;;;;;;7.18;3.20;;;;;;;12.18;76.72;99693.84;5111724;28;20131;-88
2022/05/13 02:35:18;;;;;;;5.13;3.50;;;;;;;11.97;76.78;99661.03;5111695;28;20564;-88
2022/05/13 02:37:44;;;;;;;4.30;2.88;;;;;;;12.06;77.54;99689.25;5111403;28;20031;-87
2022/05/13 02:40:10;;;;;;;5.85;2.90;;;;;;;12.07;77.28;99685.72;5111583;28;20072;-88
2022/05/13 02:42:35;;;;;;;4.95;3.38;;;;;;;12.00;76.96;99681.72;5111033;28;20035;-88
2022/05/13 02:45:01;;;;;;;5.18;2.90;;;;;;;12.02;77.25;99694.72;5111471;28;20032;-88
2022/05/13 02:47:26;;;;;;;3.95;3.03;;;;;;;11.98;77.16;99691.41;5110868;28;20027;-88
2022/05/13 02:50:17;;;;;;;6.53;2.85;;;;;;;11.97;77.38;99685.34;5111624;28;20026;-88
2022/05/13 02:52:38;;;;;;;5.28;3.20;;;;;;;11.93;77.59;99681.22;5112356;28;20172;-88
2022/05/13 02:55:04;;;;;;;4.60;3.35;;;;;;;11.90;77.46;99681.38;5111298;28;20120;-88
2022/05/13 02:57:30;;;;;;;5.55;3.10;;;;;;;11.90;77.68;99686.59;5110964;28;20046;-88
2022/05/13 02:59:55;;;;;;;6.88;3.28;;;;;;;11.89;77.95;99681.47;5111116;28;20024;-88
2022/05/13 03:02:21;;;;;;;7.38;4.10;;;;;;;11.83;78.06;99674.78;5111396;28;20030;-87
2022/05/13 03:04:47;;;;;;;5.55;3.70;;;;;;;11.86;77.99;99690.28;5111029;28;20019;-88
2022/05/13 03:07:12;;;;;;;6.68;3.90;;;;;;;11.73;77.61;99679.59;5089382;28;20127;-87
2022/05/13 03:09:37;;;;;;;6.28;3.25;;;;;;;11.79;78.12;99688.84;5072419;28;20043;-88
2022/05/13 03:12:03;;;;;;;7.38;3.40;;;;;;;11.80;78.29;99690.56;5072661;28;20043;-88
2022/05/13 03:14:29;;;;;;;5.78;3.40;;;;;;;11.79;78.51;99682.81;5072258;28;20035;-88
2022/05/13 03:16:54;;;;;;;7.82;3.10;;;;;;;11.80;78.57;99689.69;5072398;28;20043;-88
2022/05/13 03:19:19;;;;;;;4.38;3.22;;;;;;;11.83;78.63;99686.97;5072657;28;20024;-88
2022/05/13 03:21:45;;;;;;;6.45;3.03;;;;;;;11.84;78.41;99689.53;5072365;28;20685;-88
2022/05/13 03:24:10;;;;;;;7.18;3.47;;;;;;;11.87;78.52;99675.47;5072511;28;20385;-88
2022/05/13 03:26:36;;;;;;;7.28;3.53;;;;;;;11.88;78.53;99675.41;5072265;28;20477;-87
2022/05/13 03:29:02;;;;;;;8.93;3.55;;;;;;;11.93;78.28;99676.00;5072420;28;20028;-88
2022/05/13 03:31:27;;;;;;;7.18;3.40;;;;;;;11.92;78.67;99663.84;5089183;28;20032;-87
2022/05/13 03:33:53;;;;;;;4.35;3.10;;;;;;;12.02;78.58;99673.84;5072380;28;20489;-88
2022/05/13 03:36:19;;;;;;;4.43;3.45;;;;;;;12.05;77.56;99669.31;5068928;28;20044;-88
2022/05/13 03:38:44;;;;;;;4.93;3.17;;;;;;;12.03;77.81;99658.09;5083534;28;20067;-88
2022/05/13 03:41:11;;;;;;;4.82;3.40;;;;;;;12.19;77.79;99668.56;5089250;28;20099;-87
2022/05/13 03:43:36;;;;;;;4.57;3.42;;;;;;;12.23;77.98;99670.09;5089066;28;20035;-88
2022/05/13 03:46:02;;;;;;;3.97;3.55;;;;;;;12.28;77.60;99662.00;5089186;28;20189;-88
2022/05/13 03:48:27;;;;;;;6.20;3.90;;;;;;;12.39;77.10;99676.19;5071851;28;20048;-87
2022/05/13 03:50:53;;;;;;;7.88;3.63;;;;;;;12.49;76.71;99672.16;5089109;28;20374;-87
2022/05/13 03:53:18;;;;;;;7.65;3.70;;;;;;;12.61;76.49;99673.25;5091942;28;20035;-87
2022/05/13 03:55:45;;;;;;;5.20;3.55;;;;;;;12.70;76.16;99675.34;5092710;28;20032;-87
2022/05/13 03:58:11;;;;;;;8.15;3.85;;;;;;;12.80;75.76;99667.00;5093001;28;20407;-87
2022/05/13 04:00:37;;;;;;;7.00;3.47;;;;;;;13.06;75.05;99679.50;5092768;28;20032;-87
2022/05/13 04:03:03;;;;;;;6.03;3.65;;;;;;;13.39;73.51;99675.88;5092932;28;20365;-88
2022/05/13 04:10:57;;;;;;;6.03;3.22;;;;;;;14.58;68.85;99662.63;5116003;28;20635;-87
2022/05/13 04:16:08;;;;;;;8.38;3.55;;;;;;;15.40;66.37;99677.44;5115683;28;20050;-87
2022/05/13 04:18:35;;;;;;;7.10;4.03;;;;;;;15.85;64.82;99677.97;5113901;28;20468;-88
2022/05/13 04:21:04;;;;;;;6.60;3.30;;;;;;;16.30;63.16;99663.44;5114186;28;20118;-87
2022/05/13 04:23:34;;;;;;;6.38;3.45;;;;;;;16.74;61.34;99674.44;5113990;28;20037;-87
2022/05/13 04:26:00;;;;;;;6.03;3.10;;;;;;;16.99;59.21;99686.66;5114259;28;20115;-88
2022/05/13 04:28:26;;;;;;;5.00;3.03;;;;;;;16.73;59.27;99683.25;5114165;28;20055;-87
2022/05/13 04:30:51;;;;;;;5.88;3.88;;;;;;;16.74;59.36;99677.06;5114026;28;20503;-88
2022/05/13 04:33:17;;;;;;;5.63;3.50;;;;;;;16.90;59.67;99675.00;5113944;28;20036;-88
2022/05/13 04:35:42;;;;;;;4.95;3.58;;;;;;;17.29;59.12;99680.94;5113585;28;20024;-88
2022/05/13 04:38:08;;;;;;;10.57;4.03;;;;;;;17.61;57.90;99671.47;5113824;28;20028;-88
2022/05/13 04:40:33;;;;;;;6.35;3.90;;;;;;;18.49;54.69;99683.19;5115071;28;20023;-80
2022/05/13 04:43:00;;;;;;;6.65;3.60;;;;;;;19.18;51.74;99684.66;5115126;28;20362;-80
2022/05/13 04:45:29;;;;;;;8.23;3.55;;;;;;;20.10;49.34;99684.06;5115145;28;20106;-80
2022/05/13 04:48:17;;;;;;;6.38;3.38;;;;;;;20.64;47.27;99686.41;5114778;28;20040;-80
2022/05/13 04:51:01;;;;;;;4.95;3.30;;;;;;;20.40;45.78;99691.19;5115005;28;20035;-80
2022/05/13 04:53:32;;;;;;;6.40;3.63;;;;;;;20.22;44.85;99684.81;5113736;28;20023;-80
2022/05/13 04:56:00;;;;;;;5.65;3.45;;;;;;;20.51;44.15;99698.19;5114856;28;20034;-80
2022/05/13 04:58:26;;;;;;;5.53;2.80;;;;;;;20.86;42.60;99688.00;5114893;28;20024;-80
2022/05/13 05:00:55;;;;;;;6.03;3.35;;;;;;;21.39;41.40;99682.34;5115123;28;20081;-80
2022/05/13 05:03:22;;;;;;;7.35;3.10;;;;;;;22.75;38.64;99681.97;5113986;28;20108;-80
2022/05/13 05:05:48;;;;;;;5.05;2.92;;;;;;;24.34;35.17;99679.34;5114326;28;20019;-80
2022/05/13 05:08:15;;;;;;;8.15;3.25;;;;;;;25.08;32.71;99687.63;5114658;28;20080;-80
2022/05/13 05:10:42;;;;;;;5.25;3.63;;;;;;;24.77;32.54;99677.53;5114424;28;20068;-80
2022/05/13 05:13:08;;;;;;;5.28;2.88;;;;;;;24.12;32.87;99682.56;5114422;28;20073;-80
2022/05/13 05:15:35;;;;;;;5.38;2.80;;;;;;;23.87;33.99;99684.22;5114381;28;20480;-80
2022/05/13 05:18:01;;;;;;;4.90;2.80;;;;;;;23.89;33.67;99692.88;5114559;28;20034;-80
2022/05/13 05:20:26;;;;;;;7.40;3.22;;;;;;;24.00;33.71;99673.16;5114470;28;20024;-80
2022/05/13 05:22:52;;;;;;;4.38;2.85;;;;;;;24.66;32.80;99688.50;5114167;28;20072;-80
2022/05/13 05:25:20;;;;;;;9.80;3.10;;;;;;;26.54;29.98;99677.84;5114346;28;20046;-80
2022/05/13 05:27:46;;;;;;;6.20;2.85;;;;;;;28.18;27.25;99680.97;5113980;28;20028;-80
2022/05/13 05:30:13;;;;;;;3.50;2.28;;;;;;;28.63;26.22;99686.34;5114695;28;20024;-80
2022/05/13 05:32:40;;;;;;;3.63;2.63;;;;;;;27.75;27.20;99688.78;5114043;28;20070;-80
2022/05/13 05:35:11;;;;;;;6.57;2.78;;;;;;;27.15;27.98;99683.41;5114027;28;20016;-79
2022/05/13 05:37:36;;;;;;;6.63;2.75;;;;;;;26.95;28.18;99691.00;5113887;28;20039;-80
2022/05/13 05:40:03;;;;;;;4.43;2.35;;;;;;;26.86;28.32;99679.53;5114025;28;20020;-80
2022/05/13 05:42:29;;;;;;;6.72;2.60;;;;;;;27.15;27.71;99676.22;5113723;28;20020;-81
2022/05/13 05:44:55;;;;;;;3.42;2.05;;;;;;;28.94;25.04;99676.19;5113868;28;20419;-86
2022/05/13 05:47:22;;;;;;;3.97;2.10;;;;;;;31.06;22.98;99674.19;5113765;27;20559;-89
2022/05/13 05:49:48;;;;;;;5.90;2.55;;;;;;;30.89;22.42;99668.38;5112379;28;20106;-88
2022/05/13 05:52:13;;;;;;;4.28;2.40;;;;;;;30.00;23.28;99676.34;5112340;28;20120;-88
2022/05/13 05:57:23;;;;;;;5.60;2.10;;;;;;;29.09;24.06;99682.38;5113936;28;20035;-89
2022/05/13 05:59:49;;;;;;;3.92;2.13;;;;;;;29.38;24.08;99672.56;5113384;28;20456;-89
2022/05/13 06:02:15;;;;;;;5.90;2.45;;;;;;;30.10;23.57;99682.22;5112339;28;20023;-87
2022/05/13 06:04:41;;;;;;;2.78;2.13;;;;;;;29.57;23.82;99679.13;5111989;28;20460;-88
2022/05/13 06:07:11;;;;;;;10.80;2.78;;;;;;;29.72;24.25;99679.06;5112122;28;20114;-89
2022/05/13 06:09:37;;;;;;;4.55;2.30;;;;;;;30.02;23.29;99683.19;5111839;28;20028;-88
2022/05/13 06:12:06;;;;;;;3.88;2.33;;;;;;;30.06;23.92;99681.78;5112340;28;20054;-87
2022/05/13 06:14:31;;;;;;;5.00;2.40;;;;;;;30.17;23.75;99684.94;5111819;28;20031;-88
2022/05/13 06:16:57;;;;;;;5.10;2.63;;;;;;;30.41;23.54;99675.59;5111701;28;20646;-88
2022/05/13 06:19:22;;;;;;;7.95;2.45;;;;;;;31.24;23.13;99674.44;5111967;28;20106;-88
2022/05/13 06:21:48;;;;;;;4.90;2.22;;;;;;;34.18;20.16;99678.41;5112902;27;20392;-89
2022/05/13 06:24:13;;;;;;;4.63;1.90;;;;;;;36.63;17.44;99679.22;5111657;28;20034;-88
2022/05/13 06:26:40;;;;;;;5.57;2.17;;;;;;;35.95;17.13;99686.13;5111706;28;20031;-90
2022/05/13 06:29:06;;;;;;;2.90;2.08;;;;;;;33.37;19.81;99681.97;5112113;28;20035;-90
2022/05/13 06:31:32;;;;;;;4.20;2.67;;;;;;;32.32;20.91;99673.34;5112166;28;20023;-91
2022/05/13 06:33:58;;;;;;;5.28;2.30;;;;;;;33.26;19.95;99680.81;5113337;28;20031;-91
2022/05/13 06:36:23;;;;;;;8.30;2.33;;;;;;;32.10;20.14;99684.38;5112204;28;20030;-89
2022/05/13 06:38:49;;;;;;;4.80;2.30;;;;;;;34.98;18.76;99678.28;5113687;28;20070;-92
2022/05/13 06:41:15;;;;;;;5.00;2.17;;;;;;;36.19;17.03;99673.38;5112154;28;20046;-91
2022/05/13 06:43:40;;;;;;;4.35;2.53;;;;;;;37.19;16.58;99685.69;5112119;28;20395;-90
2022/05/13 06:46:06;;;;;;;3.38;2.17;;;;;;;37.76;16.18;99684.72;5112337;28;20026;-90
2022/05/13 06:48:31;;;;;;;4.55;2.20;;;;;;;40.15;14.64;99681.06;5112082;28;20442;-90
2022/05/13 06:50:57;;;;;;;3.97;2.22;;;;;;;41.97;13.02;99676.16;5111671;28;20111;-90
2022/05/13 06:53:23;;;;;;;5.65;2.35;;;;;;;43.31;12.36;99671.66;5112263;28;20032;-90
2022/05/13 06:55:49;;;;;;;6.22;2.53;;;;;;;41.93;12.32;99666.06;5111685;28;20027;-91
2022/05/13 06:58:15;;;;;;;8.02;2.30;;;;;;;39.51;13.87;99656.63;5112148;28;20036;-91
2022/05/13 07:00:43;;;;;;;4.13;1.90;;;;;;;37.31;15.52;99659.28;5111670;28;20027;-90
2022/05/13 07:03:13;;;;;;;5.30;1.88;;;;;;;36.10;16.79;99655.84;5111776;28;20028;-89
2022/05/13 07:05:39;;;;;;;4.78;2.13;;;;;;;39.77;14.47;99650.28;5111612;28;20027;-92
2022/05/13 07:08:05;;;;;;;3.55;2.00;;;;;;;43.28;12.38;99653.88;5111855;28;20040;-93
2022/05/13 07:10:30;;;;;;;4.03;2.15;;;;;;;45.82;10.46;99655.47;5111827;28;20384;-91
2022/05/13 07:12:55;;;;;;;6.00;2.63;;;;;;;47.17;9.65;99659.41;5111703;28;20408;-91
2022/05/13 07:15:21;;;;;;;4.32;1.98;;;;;;;48.08;9.63;99652.56;5111772;28;20468;-90
2022/05/13 07:17:47;;;;;;;3.92;2.28;;;;;;;48.69;8.71;99648.78;5111415;28;20020;-89
2022/05/13 07:20:15;;;;;;;6.38;2.70;;;;;;;49.44;8.79;99649.38;5111701;28;20028;-91
2022/05/13 07:22:40;;;;;;;7.03;1.98;;;;;;;50.45;8.07;99648.72;5111586;28;20052;-91
2022/05/13 07:25:07;;;;;;;3.92;1.60;;;;;;;50.86;8.16;99652.63;5111404;28;20112;-90
2022/05/13 07:27:32;;;;;;;3.45;2.10;;;;;;;51.26;7.38;99652.13;5112926;28;20024;-89
2022/05/13 07:29:57;;;;;;;4.65;2.22;;;;;;;51.55;7.25;99651.97;5115592;28;20040;-89
2022/05/13 07:32:23;;;;;;;3.13;1.73;;;;;;;51.62;6.72;99645.84;5115663;28;20070;-90
2022/05/13 07:34:48;;;;;;;3.78;1.70;;;;;;;51.60;6.43;99642.59;5093211;28;20150;-90
2022/05/13 07:37:14;;;;;;;2.97;1.55;;;;;;;48.62;6.85;99633.81;5076785;28;20043;-90
2022/05/13 07:42:23;;;;;;;2.40;1.50;;;;;;;48.86;7.07;99630.59;5094153;28;20511;-90
2022/05/13 07:44:49;;;;;;;2.15;1.38;;;;;;;49.73;6.45;99614.59;5076677;28;20032;-90
2022/05/13 07:47:16;;;;;;;2.70;1.40;;;;;;;50.48;6.57;99627.81;5076560;28;20493;-90
2022/05/13 07:49:45;;;;;;;4.25;1.70;;;;;;;50.91;6.22;99630.28;5076668;28;20047;-90
2022/05/13 07:52:10;;;;;;;;;;;;;;;51.47;5.97;99633.44;5076838;28;20040;-88
2022/05/13 07:54:35;;;;;;;2.83;1.63;;;;;;;51.57;6.37;99618.31;5076115;28;19912;-87
2022/05/13 07:57:03;;;;;;;2.92;1.60;;;;;;;51.61;5.73;99627.56;5075867;28;20035;-86
2022/05/13 07:59:31;;;;;;;2.72;1.63;;;;;;;51.70;5.97;99627.44;5073668;28;20520;-88
2022/05/13 08:01:56;;;;;;;2.33;1.45;;;;;;;51.10;5.90;99621.44;5092803;28;20475;-88
2022/05/13 08:04:21;;;;;;;2.15;1.60;;;;;;;50.52;5.97;99617.72;5075799;28;20061;-88
2022/05/13 08:06:47;;;;;;;3.20;1.52;;;;;;;50.71;6.01;99615.28;5110270;28;20059;-88
2022/05/13 08:09:12;;;;;;;12.52;1.33;;;;;;;50.72;6.55;99614.09;5114452;28;20114;-88
2022/05/13 08:11:38;;;;;;;4.00;1.80;;;;;;;50.47;6.40;99615.13;5115460;28;20031;-88
2022/05/13 08:14:04;;;;;;;3.72;1.70;;;;;;;50.35;7.03;99602.81;5113918;28;20437;-88
2022/05/13 08:16:29;;;;;;;5.30;1.80;;;;;;;49.86;7.00;99601.69;5113990;28;20430;-88
2022/05/13 08:18:58;;;;;;;2.70;1.85;;;;;;;47.94;7.88;99591.94;5115277;28;20059;-88
2022/05/13 08:21:24;;;;;;;4.55;1.52;;;;;;;45.68;9.08;99584.69;5114396;28;20034;-88
2022/05/13 08:23:50;;;;;;;4.47;2.10;;;;;;;42.52;10.50;99574.94;5114035;28;20385;-88
2022/05/13 08:26:16;;;;;;;2.90;1.77;;;;;;;39.23;12.48;99565.94;5114119;28;20061;-87
2022/05/13 08:28:42;;;;;;;3.97;2.03;;;;;;;36.74;14.58;99567.06;5115432;28;20049;-87
2022/05/13 08:31:09;;;;;;;4.40;2.10;;;;;;;34.74;16.37;99561.00;5113732;28;20051;-86
2022/05/13 08:33:35;;;;;;;2.38;1.73;;;;;;;33.27;17.38;99561.81;5114021;28;20031;-87
2022/05/13 08:36:04;;;;;;;2.75;2.20;;;;;;;32.30;18.12;99558.50;5113786;28;20027;-87
2022/05/13 08:38:32;;;;;;;7.45;1.92;;;;;;;31.11;19.25;99553.34;5115129;28;20027;-87
2022/05/13 08:41:24;;;;;;;4.65;1.80;;;;;;;29.99;20.66;99554.66;5113714;28;20020;-87
2022/05/13 08:43:56;;;;;;;5.95;2.28;;;;;;;29.64;21.32;99558.41;5113885;28;20421;-86
2022/05/13 08:46:37;;;;;;;8.63;2.15;;;;;;;29.00;21.99;99554.81;5115211;28;20039;-86
2022/05/13 08:49:24;;;;;;;4.82;2.00;;;;;;;28.54;22.34;99559.69;5113309;28;20044;-87
2022/05/13 08:54:59;;;;;;;3.70;2.08;;;;;;;28.00;24.15;99549.34;5114869;28;20047;-88
2022/05/13 08:57:28;;;;;;;4.80;2.35;;;;;;;28.12;23.94;99555.06;5113588;28;20464;-88
2022/05/13 09:00:01;;;;;;;4.90;2.07;;;;;;;28.37;23.82;99548.38;5113285;28;20088;-88
2022/05/13 09:02:28;;;;;;;3.83;1.90;;;;;;;28.52;23.59;99548.31;5113174;28;20028;-88
2022/05/13 09:05:29;;;;;;;3.67;1.90;;;;;;;28.58;23.43;99544.91;5113215;28;20031;-88
2022/05/13 09:07:56;;;;;;;2.53;1.65;;;;;;;28.59;23.61;99541.19;5075718;28;20102;-88
2022/05/13 09:10:22;;;;;;;4.68;1.90;;;;;;;28.68;23.40;99542.72;5054651;28;20032;-89
2022/05/13 09:13:12;;;;;;;4.55;1.80;;;;;;;28.79;22.80;99538.72;5054492;28;20523;-89
2022/05/13 09:15:48;;;;;;;5.60;2.08;;;;;;;28.63;22.97;99523.72;5071572;28;20032;-88
2022/05/13 09:18:16;;;;;;;3.20;1.88;;;;;;;28.59;22.72;99536.66;5054524;28;20051;-89
2022/05/13 09:20:52;;;;;;;8.10;1.88;;;;;;;28.44;23.05;99522.47;5054544;28;20029;-88
2022/05/13 09:23:19;;;;;;;5.13;2.17;;;;;;;28.20;23.54;99520.97;5054493;28;20551;-88
2022/05/13 09:25:54;;;;;;;6.85;2.30;;;;;;;28.08;24.17;99525.13;5054317;28;20036;-88
2022/05/13 09:28:20;;;;;;;10.07;2.25;;;;;;;28.03;23.72;99509.66;5054358;28;20024;-87
2022/05/13 09:30:53;;;;;;;4.85;1.80;;;;;;;28.09;24.01;99513.41;5054270;28;20060;-88
2022/05/13 09:33:30;;;;;;;4.53;1.92;;;;;;;28.25;24.08;99523.91;5054258;28;20028;-88
2022/05/13 09:36:06;;;;;;;2.35;1.90;;;;;;;28.32;24.38;99522.13;5070779;28;20028;-87
2022/05/13 09:38:41;;;;;;;4.35;1.95;;;;;;;28.24;23.96;99500.81;5030868;28;20076;-86
2022/05/13 09:41:10;;;;;;;3.55;2.22;;;;;;;28.25;24.06;99509.69;5014083;28;20034;-87
2022/05/13 09:43:50;;;;;;;4.57;1.77;;;;;;;28.33;23.66;99501.53;5015777;28;20074;-88
2022/05/13 09:46:43;;;;;;;3.97;1.70;;;;;;;28.22;24.09;99478.75;5071109;28;20071;-88
2022/05/13 09:49:11;;;;;;;2.42;1.65;;;;;;;28.28;24.57;99490.56;5052865;28;20044;-87
2022/05/13 09:52:16;;;;;;;3.25;1.67;;;;;;;28.21;24.20;99487.81;5070298;28;20035;-87
2022/05/13 09:54:44;;;;;;;4.60;1.83;;;;;;;28.00;24.68;99467.19;5053546;28;20037;-87
2022/05/13 09:57:12;;;;;;;2.65;1.80;;;;;;;27.83;24.67;99468.41;5053659;28;20036;-84
2022/05/13 09:59:43;;;;;;;2.53;1.70;;;;;;;27.71;24.94;99477.91;5053819;28;20582;-87
2022/05/13 10:02:35;;;;;;;6.90;1.80;;;;;;;27.67;25.71;99468.59;5053496;28;20025;-87
2022/05/13 10:05:17;;;;;;;6.43;1.80;;;;;;;27.76;25.51;99479.03;5053391;28;20039;-86
2022/05/13 10:07:51;;;;;;;2.72;1.77;;;;;;;27.94;25.83;99485.81;5081174;28;20050;-86
2022/05/13 10:16:03;;;;;;;5.18;2.00;;;;;;;27.60;26.15;99463.13;5111977;28;20104;-85
2022/05/13 10:18:31;;;;;;;4.80;1.98;;;;;;;27.56;26.00;99461.88;5111851;28;20035;-86
2022/05/13 10:21:20;;;;;;;3.83;1.90;;;;;;;27.48;25.83;99446.75;5111695;28;20455;-85
2022/05/13 10:24:06;;;;;;;4.18;1.80;;;;;;;27.56;25.94;99446.66;5112153;28;20114;-88
2022/05/13 10:26:36;;;;;;;4.30;2.13;;;;;;;27.72;26.27;99436.75;5111312;28;20518;-87
2022/05/13 10:29:27;;;;;;;3.42;1.95;;;;;;;27.73;26.76;99436.59;5111621;28;20520;-87
2022/05/13 10:31:53;;;;;;;;;;;;;;;27.66;26.60;99435.66;5112108;28;20442;-88
2022/05/13 10:34:29;;;;;;;4.28;1.90;;;;;;;27.59;26.80;99430.22;5113214;28;20253;-87
2022/05/13 10:37:04;;;;;;;4.50;2.10;;;;;;;27.68;26.89;99432.78;5111377;28;20051;-87
2022/05/13 10:39:44;;;;;;;4.22;2.00;;;;;;;27.73;27.69;99417.88;5111651;28;20027;-87
2022/05/13 10:42:28;;;;;;;5.10;2.38;;;;;;;27.80;27.20;99437.50;5111229;28;20035;-87
2022/05/13 10:45:19;;;;;;;2.10;1.83;;;;;;;27.78;27.02;99449.41;5111655;28;20495;-87
2022/05/13 10:47:49;;;;;;;3.17;2.00;;;;;;;27.60;27.44;99436.38;5111400;28;20040;-88
2022/05/13 10:50:25;;;;;;;3.28;1.98;;;;;;;27.60;27.44;99436.38;5111283;28;20050;-88
2022/05/13 10:53:12;;;;;;;5.10;2.25;;;;;;;27.73;27.70;99441.13;5111204;28;20032;-87
2022/05/13 10:56:06;;;;;;;5.80;2.08;;;;;;;27.84;27.67;99445.97;5111465;28;20035;-88
2022/05/13 10:58:49;;;;;;;4.88;2.00;;;;;;;27.81;27.45;99451.69;5111523;28;20581;-88
2022/05/13 11:01:21;;;;;;;2.60;1.60;;;;;;;27.70;28.08;99452.16;5110972;28;20032;-88
2022/05/13 11:04:33;;;;;;;3.97;2.20;;;;;;;27.58;28.14;99446.44;5111441;28;20035;-88
2022/05/13 11:07:03;;;;;;;5.45;2.10;;;;;;;27.49;28.42;99440.38;5001981;28;20053;-88
2022/05/13 11:09:35;;;;;;;3.13;2.25;;;;;;;27.14;28.60;99425.91;4973844;28;20498;-88
2022/05/13 11:12:41;;;;;;;5.55;2.42;;;;;;;27.01;28.52;99447.03;4973595;28;20109;-88
2022/05/13 11:15:37;;;;;;;4.75;2.08;;;;;;;26.93;29.53;99439.13;4878495;29;20041;-88
2022/05/13 11:18:02;;;;;;;4.25;2.38;;;;;;;27.07;29.71;99449.84;4878598;29;20041;-87
2022/05/13 11:20:34;;;;;;;3.35;1.90;;;;;;;27.08;29.26;99446.13;4894352;29;20044;-87
2022/05/13 11:23:16;;;;;;;2.47;1.92;;;;;;;27.14;29.30;99433.06;4894017;29;20036;-87
2022/05/13 11:26:04;;;;;;;4.35;2.28;;;;;;;27.27;29.42;99411.91;4894268;29;20438;-87
2022/05/13 11:28:44;;;;;;;5.25;2.50;;;;;;;27.42;28.95;99422.56;4894220;29;20123;-88
2022/05/13 11:31:36;;;;;;;4.18;2.05;;;;;;;27.61;28.75;99411.31;4878331;29;20101;-88
2022/05/13 11:34:27;;;;;;;6.03;2.38;;;;;;;27.69;29.01;99405.84;4878495;29;20037;-87
2022/05/13 11:37:02;;;;;;;6.32;2.35;;;;;;;27.82;29.01;99405.22;4856812;29;20472;-86
2022/05/13 11:39:36;;;;;;;3.75;1.98;;;;;;;27.94;28.57;99402.84;4841546;29;20125;-87
2022/05/13 11:42:20;;;;;;;4.05;2.28;;;;;;;28.07;28.25;99403.84;4856629;29;20038;-87
2022/05/13 11:45:10;;;;;;;2.80;2.08;;;;;;;28.17;28.39;99405.38;4917865;29;20036;-88
2022/05/13 11:47:44;;;;;;;5.07;2.50;;;;;;;28.13;27.76;99415.63;4951145;28;20552;-87
2022/05/13 11:50:11;;;;;;;6.72;2.05;;;;;;;27.84;27.95;99403.16;4934912;29;20117;-87
2022/05/13 11:52:40;;;;;;;3.65;2.20;;;;;;;27.50;28.41;99383.19;5002984;28;20095;-87
2022/05/13 11:55:42;;;;;;;3.35;1.90;;;;;;;27.34;28.93;99391.41;5028759;28;20036;-88
2022/05/13 11:58:28;;;;;;;3.70;2.05;;;;;;;27.25;28.62;99384.50;5028784;28;20112;-88
2022/05/13 12:00:53;;;;;;;5.03;2.30;;;;;;;27.10;28.96;99371.97;5037294;28;20041;-87
2022/05/13 12:03:19;;;;;;;6.25;2.10;;;;;;;27.05;29.54;99369.00;5012249;28;20604;-88
2022/05/13 12:05:50;;;;;;;7.15;2.60;;;;;;;27.06;29.69;99359.97;5012348;28;20037;-87
2022/05/13 12:08:21;;;;;;;7.05;2.40;;;;;;;26.96;29.94;99342.53;5012143;28;20049;-86
2022/05/13 12:10:57;;;;;;;3.85;1.80;;;;;;;27.04;30.83;99345.13;5029188;28;20069;-88
2022/05/13 12:13:22;;;;;;;6.07;1.80;;;;;;;27.16;29.88;99342.84;5035290;28;20040;-88
2022/05/13 12:16:04;;;;;;;5.10;2.30;;;;;;;26.97;29.62;99344.19;5093898;28;20396;-88